createdAt,value
2019-01-02T00:00:24.214Z,1.33
2019-01-02T00:03:17.867Z,1.20
2019-01-02T00:06:05.695Z,0.90
2019-01-02T00:09:00.246Z,1.43
2019-01-02T00:11:47.324Z,1.27
2019-01-02T00:14:41.763Z,0.97
2019-01-02T00:17:29.427Z,1.20
2019-01-02T00:20:23.565Z,1.40
2019-01-02T00:23:10.937Z,1.10
2019-01-02T00:26:05.435Z,1.00
2019-01-02T00:28:59.550Z,1.00
2019-01-02T00:32:01.209Z,0.90
2019-01-02T00:34:48.986Z,1.07
2019-01-02T00:37:43.448Z,1.07
2019-01-02T00:40:30.686Z,0.90
2019-01-02T00:43:24.696Z,1.30
2019-01-02T00:46:14.350Z,1.13
2019-01-02T00:49:08.422Z,1.27
2019-01-02T00:51:57.140Z,1.07
2019-01-02T00:54:51.593Z,1.10
2019-01-02T00:57:39.125Z,1.60
2019-01-02T01:00:33.749Z,1.20
2019-01-02T01:03:28.180Z,1.13
2019-01-02T01:06:24.933Z,1.10
2019-01-02T01:09:12.442Z,1.23
2019-01-02T01:12:07.140Z,1.40
2019-01-02T01:14:54.362Z,1.23
2019-01-02T01:17:48.866Z,1.30
2019-01-02T01:20:36.408Z,1.20
2019-01-02T01:23:30.677Z,1.43
2019-01-02T01:26:18.357Z,1.20
2019-01-02T01:29:19.241Z,1.10
2019-01-02T01:32:06.546Z,1.13
2019-01-02T01:35:00.631Z,1.50
2019-01-02T01:37:47.840Z,1.03
2019-01-02T01:40:42.305Z,1.27
2019-01-02T01:43:29.491Z,1.00
2019-01-02T01:46:24.109Z,1.27
2019-01-02T01:49:12.059Z,1.40
2019-01-02T01:52:11.491Z,1.00
2019-01-02T01:54:59.078Z,1.20
2019-01-02T01:57:52.789Z,1.40
2019-01-02T02:00:40.466Z,1.23
2019-01-02T02:03:34.278Z,1.30
2019-01-02T02:06:27.974Z,1.63
2019-01-02T02:09:21.962Z,1.37
2019-01-02T02:12:09.808Z,1.57
2019-01-02T02:15:04.224Z,1.63
2019-01-02T02:17:51.756Z,1.10
2019-01-02T02:20:48.108Z,1.13
2019-01-02T02:23:35.356Z,1.30
2019-01-02T02:26:29.407Z,1.17
2019-01-02T02:29:23.298Z,1.30
2019-01-02T02:32:24.635Z,1.07
2019-01-02T02:35:12.022Z,1.03
2019-01-02T02:38:05.770Z,1.30
2019-01-02T02:40:52.740Z,1.00
2019-01-02T02:43:47.401Z,1.10
2019-01-02T02:46:34.476Z,1.57
2019-01-02T02:49:41.212Z,1.27
2019-01-02T02:52:28.690Z,1.00
2019-01-02T02:55:24.284Z,1.20
2019-01-02T02:58:11.633Z,0.90
2019-01-02T03:01:06.380Z,1.37
2019-01-02T03:03:53.677Z,1.10
2019-01-02T03:06:51.590Z,1.10
2019-01-02T03:09:43.942Z,1.10
2019-01-02T03:12:38.332Z,1.00
2019-01-02T03:15:26.200Z,1.20
2019-01-02T03:18:21.713Z,1.13
2019-01-02T03:21:09.348Z,1.13
2019-01-02T03:24:03.657Z,1.10
2019-01-02T03:26:51.061Z,0.90
2019-01-02T03:29:45.456Z,1.30
2019-01-02T03:32:39.273Z,1.30
2019-01-02T03:35:34.523Z,1.20
2019-01-02T03:38:22.066Z,1.30
2019-01-02T03:41:16.419Z,1.20
2019-01-02T03:44:03.696Z,1.53
2019-01-02T03:47:08.286Z,1.77
2019-01-02T03:49:55.424Z,1.60
2019-01-02T03:52:49.654Z,1.27
2019-01-02T03:55:37.089Z,1.30
2019-01-02T03:58:31.966Z,1.03
2019-01-02T04:01:19.370Z,1.20
2019-01-02T04:04:13.856Z,0.80
2019-01-02T04:07:02.622Z,1.23
2019-01-02T04:09:56.951Z,0.90
2019-01-02T04:12:51.093Z,1.40
2019-01-02T04:15:45.242Z,1.70
2019-01-02T04:18:32.468Z,1.27
2019-01-02T04:21:26.742Z,1.20
2019-01-02T04:24:14.146Z,0.80
2019-01-02T04:27:09.281Z,0.90
2019-01-02T04:29:56.915Z,1.47
2019-01-02T04:32:57.293Z,1.20
2019-01-02T04:35:50.522Z,1.10
2019-01-02T04:38:44.333Z,1.10
2019-01-02T04:41:31.579Z,1.47
2019-01-02T04:44:25.677Z,1.00
2019-01-02T04:47:12.969Z,1.13
2019-01-02T04:50:07.055Z,1.33
2019-01-02T04:52:54.002Z,1.13
2019-01-02T04:55:47.883Z,1.27
2019-01-02T04:58:35.089Z,0.93
2019-01-02T05:01:29.497Z,1.40
2019-01-02T05:04:17.097Z,1.10
2019-01-02T05:07:11.007Z,1.30
2019-01-02T05:09:58.668Z,1.03
2019-01-02T05:13:00.278Z,1.20
2019-01-02T05:15:47.419Z,1.50
2019-01-02T05:18:41.393Z,1.40
2019-01-02T05:21:28.837Z,0.77
2019-01-02T05:24:22.509Z,0.90
2019-01-02T05:27:09.751Z,1.40
2019-01-02T05:30:03.511Z,1.10
2019-01-02T05:32:57.385Z,1.10
2019-01-02T05:35:58.802Z,1.30
2019-01-02T05:38:48.627Z,1.03
2019-01-02T05:41:42.812Z,0.93
2019-01-02T05:44:30.087Z,1.17
2019-01-02T05:47:24.089Z,1.30
2019-01-02T05:50:11.564Z,1.20
2019-01-02T05:53:05.533Z,1.00
2019-01-02T05:55:52.967Z,1.07
2019-01-02T05:58:49.635Z,1.30
2019-01-02T06:01:36.263Z,1.00
2019-01-02T06:04:30.425Z,1.37
2019-01-02T06:07:18.076Z,0.90
2019-01-02T06:10:16.827Z,1.40
2019-01-02T06:13:04.337Z,1.27
2019-01-02T06:16:05.061Z,1.00
2019-01-02T06:18:52.307Z,1.00
2019-01-02T06:21:47.465Z,1.10
2019-01-02T06:24:34.471Z,0.97
2019-01-02T06:27:29.200Z,1.30
2019-01-02T06:30:16.316Z,0.80
2019-01-02T06:33:11.151Z,0.90
2019-01-02T06:36:07.594Z,0.83
2019-01-02T06:39:01.482Z,0.57
2019-01-02T06:41:49.857Z,0.90
2019-01-02T06:44:43.457Z,0.70
2019-01-02T06:47:30.672Z,0.60
2019-01-02T06:50:26.325Z,0.70
2019-01-02T06:53:15.050Z,0.50
2019-01-02T06:56:10.920Z,0.70
2019-01-02T06:58:58.431Z,0.60
2019-01-02T07:01:52.901Z,0.87
2019-01-02T07:04:40.251Z,0.60
2019-01-02T07:07:34.285Z,0.53
2019-01-02T07:10:21.471Z,0.40
2019-01-02T07:13:16.000Z,0.67
2019-01-02T07:16:10.159Z,0.60
2019-01-02T07:19:04.300Z,0.50
2019-01-02T07:21:51.784Z,0.80
2019-01-02T07:24:46.185Z,0.53
2019-01-02T07:27:33.259Z,0.80
2019-01-02T07:30:28.018Z,1.00
2019-01-02T07:33:15.153Z,0.60
2019-01-02T07:36:33.981Z,0.60
2019-01-02T07:39:22.901Z,0.60
2019-01-02T07:42:19.099Z,0.27
2019-01-02T07:45:11.084Z,0.60
2019-01-02T07:48:09.549Z,0.77
2019-01-02T07:51:15.217Z,0.60
2019-01-02T07:54:22.824Z,0.50
2019-01-02T07:57:11.663Z,0.60
2019-01-02T08:00:09.601Z,0.50
2019-01-02T08:03:07.843Z,0.30
2019-01-02T08:06:18.515Z,0.40
2019-01-02T08:09:16.417Z,0.33
2019-01-02T08:12:18.225Z,0.70
2019-01-02T08:15:22.485Z,0.47
2019-01-02T08:18:41.491Z,0.40
2019-01-02T08:21:30.343Z,0.60
2019-01-02T08:24:29.131Z,0.40
2019-01-02T08:27:20.797Z,0.40
2019-01-02T08:30:34.927Z,0.50
2019-01-02T08:33:32.790Z,0.23
2019-01-02T08:36:34.641Z,0.30
2019-01-02T08:39:36.645Z,0.47
2019-01-02T08:42:32.392Z,0.63
2019-01-02T08:45:24.023Z,0.40
2019-01-02T08:48:19.923Z,0.40
2019-01-02T08:51:08.619Z,0.50
2019-01-02T08:54:13.113Z,0.50
2019-01-02T08:57:10.851Z,0.27
2019-01-02T09:00:23.982Z,0.30
2019-01-02T09:03:22.704Z,0.50
2019-01-02T09:06:35.819Z,0.43
2019-01-02T09:09:27.506Z,0.43
2019-01-02T09:12:26.320Z,0.30
2019-01-02T09:15:17.931Z,0.40
2019-01-02T09:18:25.214Z,0.60
2019-01-02T09:21:32.538Z,0.30
2019-01-02T09:24:43.967Z,0.47
2019-01-02T09:27:35.733Z,0.30
2019-01-02T09:30:48.962Z,0.40
2019-01-02T09:33:52.249Z,0.47
2019-01-02T09:36:59.904Z,0.50
2019-01-02T09:39:54.664Z,0.20
2019-01-02T09:42:59.458Z,0.27
2019-01-02T09:45:59.311Z,0.50
2019-01-02T09:48:54.949Z,0.50
2019-01-02T09:52:00.671Z,0.57
2019-01-02T09:55:05.853Z,0.20
2019-01-02T09:57:54.619Z,0.23
2019-01-02T10:00:50.405Z,0.40
2019-01-02T10:03:51.610Z,0.43
2019-01-02T10:07:05.155Z,0.70
2019-01-02T10:09:56.711Z,0.50
2019-01-02T10:12:52.319Z,0.63
2019-01-02T10:15:43.665Z,0.40
2019-01-02T10:18:45.421Z,0.73
2019-01-02T10:21:44.383Z,0.40
2019-01-02T10:24:40.004Z,0.20
2019-01-02T10:27:38.236Z,0.50
2019-01-02T10:30:40.265Z,0.50
2019-01-02T10:33:29.074Z,0.50
2019-01-02T10:36:28.246Z,0.40
2019-01-02T10:39:41.132Z,0.60
2019-01-02T10:42:49.560Z,0.40
2019-01-02T10:45:38.538Z,0.43
2019-01-02T10:48:39.644Z,0.50
2019-01-02T10:51:34.547Z,0.50
2019-01-02T10:54:32.911Z,0.40
2019-01-02T10:57:22.262Z,0.40
2019-01-02T11:00:33.828Z,0.23
2019-01-02T11:03:32.286Z,0.50
2019-01-02T11:06:33.654Z,0.60
2019-01-02T11:09:28.743Z,0.50
2019-01-02T11:12:27.074Z,0.50
2019-01-02T11:15:22.001Z,0.40
2019-01-02T11:18:17.367Z,0.40
2019-01-02T11:21:06.161Z,0.67
2019-01-02T11:24:18.391Z,0.67
2019-01-02T11:27:23.384Z,0.60
2019-01-02T11:30:22.182Z,0.47
2019-01-02T11:33:13.834Z,0.60
2019-01-02T11:36:12.512Z,0.20
2019-01-02T11:39:14.445Z,0.60
2019-01-02T11:42:16.461Z,0.63
2019-01-02T11:45:07.438Z,0.50
2019-01-02T11:48:02.073Z,0.50
2019-01-02T11:50:49.302Z,0.40
2019-01-02T11:53:43.566Z,0.60
2019-01-02T11:56:30.890Z,0.63
2019-01-02T11:59:25.164Z,0.50
2019-01-02T12:02:14.559Z,0.40
2019-01-02T12:05:08.524Z,0.50
2019-01-02T12:07:55.833Z,0.40
2019-01-02T12:10:52.494Z,0.50
2019-01-02T12:13:39.476Z,0.23
2019-01-02T12:16:33.890Z,0.50
2019-01-02T12:19:21.215Z,0.40
2019-01-02T12:22:15.925Z,0.60
2019-01-02T12:25:09.627Z,0.60
2019-01-02T12:28:03.479Z,0.40
2019-01-02T12:30:50.991Z,0.53
2019-01-02T12:33:45.448Z,0.60
2019-01-02T12:36:32.423Z,0.53
2019-01-02T12:39:36.293Z,0.40
2019-01-02T12:42:23.438Z,0.30
2019-01-02T12:45:18.545Z,0.60
2019-01-02T12:48:06.169Z,0.67
2019-01-02T12:51:00.148Z,0.33
2019-01-02T12:53:47.768Z,0.20
2019-01-02T12:56:41.669Z,0.47
2019-01-02T12:59:29.205Z,0.57
2019-01-02T13:02:36.803Z,0.43
2019-01-02T13:05:43.671Z,0.70
2019-01-02T13:08:41.853Z,0.63
2019-01-02T13:11:36.949Z,0.37
2019-01-02T13:14:41.493Z,0.63
2019-01-02T13:17:36.481Z,0.50
2019-01-02T13:20:35.362Z,0.40
2019-01-02T13:23:30.189Z,0.47
2019-01-02T13:26:39.045Z,0.50
2019-01-02T13:29:33.814Z,0.47
2019-01-02T13:32:44.944Z,0.63
2019-01-02T13:35:33.631Z,0.67
2019-01-02T13:38:29.048Z,0.47
2019-01-02T13:41:24.597Z,0.80
2019-01-02T13:44:38.771Z,0.70
2019-01-02T13:47:30.508Z,0.67
2019-01-02T13:50:26.793Z,0.53
2019-01-02T13:53:13.905Z,0.60
2019-01-02T13:56:08.750Z,0.40
2019-01-02T13:58:55.950Z,0.50
2019-01-02T14:01:50.323Z,0.43
2019-01-02T14:04:37.775Z,0.60
2019-01-02T14:07:32.152Z,0.70
2019-01-02T14:10:19.205Z,0.47
2019-01-02T14:13:13.212Z,0.60
2019-01-02T14:16:00.425Z,0.60
2019-01-02T14:18:54.797Z,0.60
2019-01-02T14:21:45.034Z,0.70
2019-01-02T14:24:38.807Z,0.67
2019-01-02T14:27:33.030Z,0.40
2019-01-02T14:30:26.822Z,0.63
2019-01-02T14:33:14.210Z,0.40
2019-01-02T14:36:08.423Z,0.40
2019-01-02T14:38:55.782Z,0.57
2019-01-02T14:41:56.875Z,0.90
2019-01-02T14:44:47.066Z,0.67
2019-01-02T14:47:41.987Z,0.63
2019-01-02T14:50:29.409Z,0.60
2019-01-02T14:53:23.881Z,0.47
2019-01-02T14:56:13.836Z,0.43
2019-01-02T14:59:07.947Z,0.60
2019-01-02T15:01:55.282Z,0.53
2019-01-02T15:04:49.027Z,0.70
2019-01-02T15:07:36.579Z,0.77
2019-01-02T15:10:31.013Z,0.57
2019-01-02T15:13:18.475Z,0.40
2019-01-02T15:16:12.685Z,0.37
2019-01-02T15:18:59.998Z,0.50
2019-01-02T15:21:54.196Z,0.50
2019-01-02T15:24:41.534Z,0.53
2019-01-02T15:27:37.968Z,0.47
2019-01-02T15:30:32.463Z,0.50
2019-01-02T15:33:26.711Z,0.60
2019-01-02T15:36:14.186Z,0.60
2019-01-02T15:39:08.774Z,0.70
2019-01-02T15:42:02.963Z,0.50
2019-01-02T15:45:03.295Z,0.57
2019-01-02T15:47:50.713Z,0.50
2019-01-02T15:50:44.546Z,0.60
2019-01-02T15:53:31.875Z,0.40
2019-01-02T15:56:26.579Z,0.63
2019-01-02T15:59:16.454Z,0.73
2019-01-02T16:02:10.540Z,0.40
2019-01-02T16:04:59.582Z,0.53
2019-01-02T16:07:57.059Z,0.70
2019-01-02T16:10:44.206Z,0.70
2019-01-02T16:13:38.555Z,0.53
2019-01-02T16:16:25.912Z,0.50
2019-01-02T16:19:20.294Z,0.70
2019-01-02T16:22:10.186Z,0.60
2019-01-02T16:25:04.143Z,0.57
2019-01-02T16:27:53.139Z,0.80
2019-01-02T16:30:48.416Z,0.57
2019-01-02T16:33:42.655Z,0.60
2019-01-02T16:36:37.688Z,0.50
2019-01-02T16:39:25.159Z,0.70
2019-01-02T16:42:28.192Z,0.70
2019-01-02T16:45:25.259Z,0.87
2019-01-02T16:48:19.186Z,0.63
2019-01-02T16:51:06.466Z,0.80
2019-01-02T16:54:01.380Z,1.00
2019-01-02T16:56:48.764Z,0.90
2019-01-02T16:59:42.867Z,0.70
2019-01-02T17:02:29.995Z,1.10
2019-01-02T17:05:24.400Z,0.70
2019-01-02T17:08:11.746Z,0.77
2019-01-02T17:11:08.688Z,0.70
2019-01-02T17:13:56.302Z,0.60
2019-01-02T17:16:50.334Z,0.77
2019-01-02T17:19:40.052Z,0.60
2019-01-02T17:22:34.495Z,0.80
2019-01-02T17:25:21.980Z,0.73
2019-01-02T17:28:16.441Z,1.27
2019-01-02T17:31:03.592Z,1.10
2019-01-02T17:33:57.617Z,0.83
2019-01-02T17:36:52.384Z,0.83
2019-01-02T17:39:46.923Z,0.87
2019-01-02T17:42:34.012Z,0.80
2019-01-02T17:45:35.712Z,0.70
2019-01-02T17:48:29.871Z,0.90
2019-01-02T17:51:23.718Z,0.80
2019-01-02T17:54:10.863Z,0.63
2019-01-02T17:57:05.519Z,0.60
2019-01-02T17:59:52.732Z,0.80
2019-01-02T18:02:46.367Z,0.60
2019-01-02T18:05:33.748Z,0.50
2019-01-02T18:08:28.999Z,0.70
2019-01-02T18:11:17.151Z,0.60
2019-01-02T18:14:10.788Z,0.83
2019-01-02T18:16:57.942Z,0.90
2019-01-02T18:19:51.667Z,0.67
2019-01-02T18:22:39.253Z,0.90
2019-01-02T18:25:32.953Z,0.90
2019-01-02T18:28:20.095Z,0.60
2019-01-02T18:31:14.370Z,1.00
2019-01-02T18:34:04.003Z,0.90
2019-01-02T18:36:58.419Z,0.70
2019-01-02T18:39:52.155Z,0.97
2019-01-02T18:42:48.997Z,0.70
2019-01-02T18:45:45.891Z,0.73
2019-01-02T18:48:46.742Z,0.70
2019-01-02T18:51:34.213Z,0.63
2019-01-02T18:54:27.723Z,1.23
2019-01-02T18:57:14.818Z,0.80
2019-01-02T19:00:08.575Z,0.60
2019-01-02T19:02:55.950Z,0.80
2019-01-02T19:05:50.571Z,0.77
2019-01-02T19:08:38.031Z,0.90
2019-01-02T19:11:31.458Z,1.00
2019-01-02T19:14:18.600Z,0.80
2019-01-02T19:17:12.630Z,1.20
2019-01-02T19:19:59.781Z,0.90
2019-01-02T19:22:53.790Z,1.00
2019-01-02T19:25:40.896Z,1.10
2019-01-02T19:28:35.534Z,0.70
2019-01-02T19:31:22.491Z,1.20
2019-01-02T19:34:16.624Z,1.07
2019-01-02T19:37:03.733Z,0.80
2019-01-02T19:39:57.997Z,0.70
2019-01-02T19:42:52.604Z,0.83
2019-01-02T19:45:53.319Z,1.23
2019-01-02T19:48:46.824Z,0.80
2019-01-02T19:51:41.174Z,1.27
2019-01-02T19:54:28.443Z,0.97
2019-01-02T19:57:23.083Z,0.80
2019-01-02T20:00:10.766Z,0.90
2019-01-02T20:03:04.682Z,1.20
2019-01-02T20:05:51.824Z,1.17
2019-01-02T20:08:46.858Z,1.20
2019-01-02T20:11:33.976Z,0.73
2019-01-02T20:14:27.720Z,1.00
2019-01-02T20:17:15.142Z,1.00
2019-01-02T20:20:09.740Z,1.20
2019-01-02T20:22:57.222Z,0.93
2019-01-02T20:25:51.972Z,1.00
2019-01-02T20:28:39.425Z,0.97
2019-01-02T20:31:33.692Z,1.03
2019-01-02T20:34:22.222Z,0.80
2019-01-02T20:37:31.100Z,1.33
2019-01-02T20:40:25.345Z,0.97
2019-01-02T20:43:26.185Z,1.03
2019-01-02T20:46:20.894Z,0.80
2019-01-02T20:49:22.623Z,1.43
2019-01-02T20:52:10.022Z,1.40
2019-01-02T20:55:03.923Z,1.07
2019-01-02T20:57:51.390Z,1.20
2019-01-02T21:00:45.620Z,1.00
2019-01-02T21:03:32.595Z,1.20
2019-01-02T21:06:27.203Z,1.40
2019-01-02T21:09:17.178Z,1.10
2019-01-02T21:12:11.944Z,1.20
2019-01-02T21:14:59.200Z,1.07
2019-01-02T21:17:52.991Z,1.00
2019-01-02T21:20:40.480Z,1.20
2019-01-02T21:23:34.383Z,1.20
2019-01-02T21:26:21.476Z,1.37
2019-01-02T21:29:15.850Z,1.10
2019-01-02T21:32:03.006Z,0.97
2019-01-02T21:34:57.894Z,1.23
2019-01-02T21:37:46.743Z,1.30
2019-01-02T21:40:41.063Z,1.40
2019-01-02T21:43:27.969Z,1.53
2019-01-02T21:46:30.575Z,1.27
2019-01-02T21:49:24.026Z,1.10
2019-01-02T21:52:17.554Z,1.23
2019-01-02T21:55:05.619Z,1.20
2019-01-02T21:58:01.912Z,1.10
2019-01-02T22:00:49.442Z,1.10
2019-01-02T22:03:43.955Z,1.40
2019-01-02T22:06:33.159Z,1.20
2019-01-02T22:09:26.650Z,1.50
2019-01-02T22:12:16.970Z,1.30
2019-01-02T22:15:12.871Z,1.40
2019-01-02T22:17:59.908Z,1.17
2019-01-02T22:20:53.822Z,1.33
2019-01-02T22:23:41.203Z,1.30
2019-01-02T22:26:35.602Z,1.37
2019-01-02T22:29:25.720Z,0.97
2019-01-02T22:32:20.285Z,1.20
2019-01-02T22:35:07.655Z,1.37
2019-01-02T22:38:01.833Z,1.27
2019-01-02T22:40:49.167Z,0.93
2019-01-02T22:43:42.984Z,0.97
2019-01-02T22:46:36.199Z,0.90
2019-01-02T22:49:37.677Z,1.07
2019-01-02T22:52:31.579Z,1.20
2019-01-02T22:55:26.079Z,1.30
2019-01-02T22:58:13.404Z,1.13
2019-01-02T23:01:11.864Z,0.93
2019-01-02T23:04:03.453Z,1.27
2019-01-02T23:07:18.024Z,1.30
2019-01-02T23:10:12.363Z,0.93
2019-01-02T23:13:10.513Z,1.13
2019-01-02T23:16:05.136Z,1.00
2019-01-02T23:19:06.389Z,0.80
2019-01-02T23:22:11.301Z,1.07
2019-01-02T23:25:06.479Z,1.07
2019-01-02T23:27:55.317Z,1.27
2019-01-02T23:31:08.447Z,1.00
2019-01-02T23:33:56.885Z,1.00
2019-01-02T23:37:02.140Z,0.93
2019-01-02T23:39:51.127Z,1.30
2019-01-02T23:42:50.829Z,1.00
2019-01-02T23:45:45.326Z,1.10
2019-01-02T23:48:43.523Z,1.30
2019-01-02T23:51:55.580Z,1.17
2019-01-02T23:55:00.353Z,0.97
2019-01-02T23:57:49.213Z,1.00
